sensor_id;sensor_type;location;lat;lon;timestamp;P1;durP1;ratioP1;P2;durP2;ratioP2
13785;SDS011;47474;48.824;9.384;2023-08-21T00:00:45;7.22;;;5.85;;
13785;SDS011;47474;48.824;9.384;2023-08-21T00:03:12;6.78;;;6.03;;
13785;SDS011;47474;48.824;9.384;2023-08-21T00:05:39;7.40;;;6.10;;
13785;SDS011;47474;48.824;9.384;2023-08-21T00:08:05;6.80;;;6.10;;
13785;SDS011;47474;48.824;9.384;2023-08-21T00:10:32;9.10;;;6.07;;
13785;SDS011;47474;48.824;9.384;2023-08-21T00:13:00;6.93;;;6.22;;
13785;SDS011;47474;48.824;9.384;2023-08-21T00:15:26;6.95;;;6.10;;
13785;SDS011;47474;48.824;9.384;2023-08-21T00:17:53;6.68;;;6.07;;
13785;SDS011;47474;48.824;9.384;2023-08-21T00:20:20;6.30;;;5.72;;
13785;SDS011;47474;48.824;9.384;2023-08-21T00:22:46;9.05;;;6.75;;
13785;SDS011;47474;48.824;9.384;2023-08-21T00:25:13;6.93;;;6.22;;
13785;SDS011;47474;48.824;9.384;2023-08-21T00:27:40;7.28;;;6.55;;
13785;SDS011;47474;48.824;9.384;2023-08-21T00:30:09;8.43;;;5.93;;
13785;SDS011;47474;48.824;9.384;2023-08-21T00:32:36;8.93;;;6.50;;
13785;SDS011;47474;48.824;9.384;2023-08-21T00:35:03;8.02;;;6.43;;
13785;SDS011;47474;48.824;9.384;2023-08-21T00:37:30;7.10;;;6.40;;
13785;SDS011;47474;48.824;9.384;2023-08-21T00:39:56;7.13;;;6.47;;
13785;SDS011;47474;48.824;9.384;2023-08-21T00:42:23;9.32;;;6.30;;
13785;SDS011;47474;48.824;9.384;2023-08-21T00:44:50;8.45;;;6.05;;
13785;SDS011;47474;48.824;9.384;2023-08-21T00:47:18;11.85;;;6.80;;
13785;SDS011;47474;48.824;9.384;2023-08-21T00:49:45;7.55;;;6.65;;
13785;SDS011;47474;48.824;9.384;2023-08-21T00:52:12;7.43;;;6.15;;
13785;SDS011;47474;48.824;9.384;2023-08-21T00:54:39;8.55;;;6.40;;
13785;SDS011;47474;48.824;9.384;2023-08-21T00:57:05;7.65;;;6.15;;
13785;SDS011;47474;48.824;9.384;2023-08-21T00:59:32;8.00;;;6.10;;
13785;SDS011;47474;48.824;9.384;2023-08-21T01:01:59;8.27;;;6.60;;
13785;SDS011;47474;48.824;9.384;2023-08-21T01:04:27;7.25;;;6.55;;
13785;SDS011;47474;48.824;9.384;2023-08-21T01:06:53;6.85;;;6.20;;
13785;SDS011;47474;48.824;9.384;2023-08-21T01:09:22;8.27;;;6.28;;
13785;SDS011;47474;48.824;9.384;2023-08-21T01:11:54;7.40;;;6.43;;
13785;SDS011;47474;48.824;9.384;2023-08-21T01:14:25;7.40;;;6.50;;
13785;SDS011;47474;48.824;9.384;2023-08-21T01:16:55;9.20;;;6.53;;
13785;SDS011;47474;48.824;9.384;2023-08-21T01:19:24;6.75;;;6.15;;
13785;SDS011;47474;48.824;9.384;2023-08-21T01:21:56;7.72;;;6.95;;
13785;SDS011;47474;48.824;9.384;2023-08-21T01:24:25;7.10;;;6.35;;
13785;SDS011;47474;48.824;9.384;2023-08-21T01:26:51;8.35;;;6.30;;
13785;SDS011;47474;48.824;9.384;2023-08-21T01:29:18;7.50;;;6.03;;
13785;SDS011;47474;48.824;9.384;2023-08-21T01:31:45;6.78;;;6.18;;
13785;SDS011;47474;48.824;9.384;2023-08-21T01:34:15;6.95;;;6.28;;
13785;SDS011;47474;48.824;9.384;2023-08-21T01:36:42;7.93;;;6.50;;
13785;SDS011;47474;48.824;9.384;2023-08-21T01:39:09;6.95;;;6.20;;
13785;SDS011;47474;48.824;9.384;2023-08-21T01:41:37;6.72;;;6.05;;
13785;SDS011;47474;48.824;9.384;2023-08-21T01:44:03;6.97;;;6.38;;
13785;SDS011;47474;48.824;9.384;2023-08-21T01:46:30;6.85;;;6.07;;
13785;SDS011;47474;48.824;9.384;2023-08-21T01:48:57;7.90;;;7.15;;
13785;SDS011;47474;48.824;9.384;2023-08-21T01:51:23;7.97;;;6.63;;
13785;SDS011;47474;48.824;9.384;2023-08-21T01:53:50;7.20;;;6.50;;
13785;SDS011;47474;48.824;9.384;2023-08-21T01:56:16;7.10;;;6.40;;
13785;SDS011;47474;48.824;9.384;2023-08-21T01:58:44;9.48;;;6.60;;
13785;SDS011;47474;48.824;9.384;2023-08-21T02:01:11;7.40;;;6.70;;
13785;SDS011;47474;48.824;9.384;2023-08-21T02:03:39;8.30;;;6.97;;
13785;SDS011;47474;48.824;9.384;2023-08-21T02:06:05;7.47;;;6.78;;
13785;SDS011;47474;48.824;9.384;2023-08-21T02:08:32;6.97;;;6.38;;
13785;SDS011;47474;48.824;9.384;2023-08-21T02:10:59;9.38;;;6.80;;
13785;SDS011;47474;48.824;9.384;2023-08-21T02:13:26;9.32;;;6.32;;
13785;SDS011;47474;48.824;9.384;2023-08-21T02:15:54;7.95;;;6.47;;
13785;SDS011;47474;48.824;9.384;2023-08-21T02:18:20;7.95;;;6.32;;
13785;SDS011;47474;48.824;9.384;2023-08-21T02:20:47;7.43;;;6.10;;
13785;SDS011;47474;48.824;9.384;2023-08-21T02:23:14;11.25;;;6.93;;
13785;SDS011;47474;48.824;9.384;2023-08-21T02:25:41;7.65;;;6.35;;
13785;SDS011;47474;48.824;9.384;2023-08-21T02:28:07;6.80;;;6.18;;
13785;SDS011;47474;48.824;9.384;2023-08-21T02:30:34;7.13;;;6.30;;
13785;SDS011;47474;48.824;9.384;2023-08-21T02:33:02;9.65;;;6.65;;
13785;SDS011;47474;48.824;9.384;2023-08-21T02:35:29;7.70;;;6.63;;
13785;SDS011;47474;48.824;9.384;2023-08-21T02:37:56;6.65;;;6.05;;
13785;SDS011;47474;48.824;9.384;2023-08-21T02:40:22;9.55;;;6.60;;
13785;SDS011;47474;48.824;9.384;2023-08-21T02:42:49;7.13;;;6.43;;
13785;SDS011;47474;48.824;9.384;2023-08-21T02:45:15;8.40;;;6.75;;
13785;SDS011;47474;48.824;9.384;2023-08-21T02:47:44;7.43;;;6.72;;
13785;SDS011;47474;48.824;9.384;2023-08-21T02:50:12;7.32;;;6.20;;
13785;SDS011;47474;48.824;9.384;2023-08-21T02:52:38;6.78;;;6.03;;
13785;SDS011;47474;48.824;9.384;2023-08-21T02:55:05;7.38;;;6.78;;
13785;SDS011;47474;48.824;9.384;2023-08-21T02:57:32;7.00;;;6.40;;
13785;SDS011;47474;48.824;9.384;2023-08-21T02:59:59;7.20;;;6.55;;
13785;SDS011;47474;48.824;9.384;2023-08-21T03:02:26;7.78;;;6.97;;
13785;SDS011;47474;48.824;9.384;2023-08-21T03:04:53;7.82;;;6.30;;
13785;SDS011;47474;48.824;9.384;2023-08-21T03:07:21;7.35;;;6.45;;
13785;SDS011;47474;48.824;9.384;2023-08-21T03:09:48;6.55;;;5.95;;
13785;SDS011;47474;48.824;9.384;2023-08-21T03:12:15;8.05;;;7.28;;
13785;SDS011;47474;48.824;9.384;2023-08-21T03:14:41;7.68;;;6.57;;
13785;SDS011;47474;48.824;9.384;2023-08-21T03:17:08;7.13;;;6.47;;
13785;SDS011;47474;48.824;9.384;2023-08-21T03:19:34;7.38;;;6.68;;
13785;SDS011;47474;48.824;9.384;2023-08-21T03:22:01;7.65;;;6.85;;
13785;SDS011;47474;48.824;9.384;2023-08-21T03:24:29;7.38;;;6.68;;
13785;SDS011;47474;48.824;9.384;2023-08-21T03:26:56;7.00;;;6.30;;
13785;SDS011;47474;48.824;9.384;2023-08-21T03:29:22;7.50;;;6.80;;
13785;SDS011;47474;48.824;9.384;2023-08-21T03:31:49;8.57;;;6.55;;
13785;SDS011;47474;48.824;9.384;2023-08-21T03:34:16;7.80;;;7.03;;
13785;SDS011;47474;48.824;9.384;2023-08-21T03:36:43;8.93;;;7.03;;
13785;SDS011;47474;48.824;9.384;2023-08-21T03:39:09;8.52;;;7.10;;
13785;SDS011;47474;48.824;9.384;2023-08-21T03:41:37;8.85;;;7.10;;
13785;SDS011;47474;48.824;9.384;2023-08-21T03:44:04;7.78;;;6.57;;
13785;SDS011;47474;48.824;9.384;2023-08-21T03:46:30;9.60;;;7.45;;
13785;SDS011;47474;48.824;9.384;2023-08-21T03:48:58;7.68;;;7.00;;
13785;SDS011;47474;48.824;9.384;2023-08-21T03:51:24;7.63;;;6.90;;
13785;SDS011;47474;48.824;9.384;2023-08-21T03:53:51;7.70;;;6.90;;
13785;SDS011;47474;48.824;9.384;2023-08-21T03:56:17;7.53;;;6.75;;
13785;SDS011;47474;48.824;9.384;2023-08-21T03:58:46;8.27;;;7.40;;
13785;SDS011;47474;48.824;9.384;2023-08-21T04:01:13;7.30;;;6.70;;
13785;SDS011;47474;48.824;9.384;2023-08-21T04:03:40;8.05;;;7.28;;
13785;SDS011;47474;48.824;9.384;2023-08-21T04:06:06;7.35;;;6.63;;
13785;SDS011;47474;48.824;9.384;2023-08-21T04:08:33;7.55;;;6.85;;
13785;SDS011;47474;48.824;9.384;2023-08-21T04:11:00;6.95;;;6.35;;
13785;SDS011;47474;48.824;9.384;2023-08-21T04:13:27;7.78;;;6.97;;
13785;SDS011;47474;48.824;9.384;2023-08-21T04:15:55;7.30;;;6.70;;
13785;SDS011;47474;48.824;9.384;2023-08-21T04:18:22;7.40;;;6.68;;
13785;SDS011;47474;48.824;9.384;2023-08-21T04:20:48;9.05;;;6.95;;
13785;SDS011;47474;48.824;9.384;2023-08-21T04:23:15;8.05;;;6.35;;
13785;SDS011;47474;48.824;9.384;2023-08-21T04:25:42;8.40;;;6.80;;
13785;SDS011;47474;48.824;9.384;2023-08-21T04:28:09;8.02;;;7.30;;
13785;SDS011;47474;48.824;9.384;2023-08-21T04:30:36;8.30;;;7.00;;
13785;SDS011;47474;48.824;9.384;2023-08-21T04:33:04;6.68;;;5.90;;
13785;SDS011;47474;48.824;9.384;2023-08-21T04:35:35;8.45;;;7.65;;
13785;SDS011;47474;48.824;9.384;2023-08-21T04:38:02;7.45;;;6.65;;
13785;SDS011;47474;48.824;9.384;2023-08-21T04:40:29;7.07;;;6.47;;
13785;SDS011;47474;48.824;9.384;2023-08-21T04:42:56;9.40;;;7.32;;
13785;SDS011;47474;48.824;9.384;2023-08-21T04:45:22;7.32;;;6.70;;
13785;SDS011;47474;48.824;9.384;2023-08-21T04:47:49;9.27;;;6.85;;
13785;SDS011;47474;48.824;9.384;2023-08-21T04:50:17;7.45;;;6.82;;
13785;SDS011;47474;48.824;9.384;2023-08-21T04:52:46;7.97;;;7.18;;
13785;SDS011;47474;48.824;9.384;2023-08-21T05:10:50;7.60;;;6.90;;
13785;SDS011;47474;48.824;9.384;2023-08-21T05:13:20;8.65;;;7.65;;
13785;SDS011;47474;48.824;9.384;2023-08-21T05:15:50;9.52;;;7.50;;
13785;SDS011;47474;48.824;9.384;2023-08-21T05:18:17;8.07;;;7.38;;
13785;SDS011;47474;48.824;9.384;2023-08-21T05:20:44;8.30;;;7.60;;
13785;SDS011;47474;48.824;9.384;2023-08-21T05:23:11;9.10;;;8.30;;
13785;SDS011;47474;48.824;9.384;2023-08-21T05:25:37;8.60;;;7.90;;
13785;SDS011;47474;48.824;9.384;2023-08-21T05:28:06;8.80;;;7.50;;
13785;SDS011;47474;48.824;9.384;2023-08-21T05:30:32;8.43;;;7.60;;
13785;SDS011;47474;48.824;9.384;2023-08-21T05:33:00;7.97;;;7.30;;
13785;SDS011;47474;48.824;9.384;2023-08-21T05:35:27;9.90;;;7.88;;
13785;SDS011;47474;48.824;9.384;2023-08-21T05:37:54;8.15;;;7.35;;
13785;SDS011;47474;48.824;9.384;2023-08-21T05:40:29;8.75;;;7.95;;
13785;SDS011;47474;48.824;9.384;2023-08-21T05:43:08;8.55;;;7.85;;
13785;SDS011;47474;48.824;9.384;2023-08-21T05:46:43;8.63;;;7.68;;
13785;SDS011;47474;48.824;9.384;2023-08-21T05:49:01;8.52;;;7.82;;
13785;SDS011;47474;48.824;9.384;2023-08-21T05:51:27;8.68;;;7.88;;
13785;SDS011;47474;48.824;9.384;2023-08-21T05:53:54;8.38;;;7.60;;
13785;SDS011;47474;48.824;9.384;2023-08-21T05:56:21;8.43;;;7.63;;
13785;SDS011;47474;48.824;9.384;2023-08-21T05:58:50;8.45;;;7.55;;
13785;SDS011;47474;48.824;9.384;2023-08-21T06:01:21;8.10;;;7.38;;
13785;SDS011;47474;48.824;9.384;2023-08-21T06:03:51;8.75;;;7.95;;
13785;SDS011;47474;48.824;9.384;2023-08-21T06:06:55;9.13;;;7.60;;
13785;SDS011;47474;48.824;9.384;2023-08-21T06:09:45;8.13;;;7.32;;
13785;SDS011;47474;48.824;9.384;2023-08-21T06:12:49;8.13;;;7.30;;
13785;SDS011;47474;48.824;9.384;2023-08-21T06:15:22;8.55;;;7.18;;
13785;SDS011;47474;48.824;9.384;2023-08-21T06:18:00;8.65;;;7.68;;
13785;SDS011;47474;48.824;9.384;2023-08-21T06:20:36;8.95;;;8.15;;
13785;SDS011;47474;48.824;9.384;2023-08-21T06:23:06;8.55;;;7.63;;
13785;SDS011;47474;48.824;9.384;2023-08-21T06:25:39;8.82;;;7.93;;
13785;SDS011;47474;48.824;9.384;2023-08-21T06:28:12;8.50;;;7.78;;
13785;SDS011;47474;48.824;9.384;2023-08-21T06:30:43;9.30;;;7.65;;
13785;SDS011;47474;48.824;9.384;2023-08-21T06:33:09;11.63;;;8.23;;
13785;SDS011;47474;48.824;9.384;2023-08-21T06:35:36;8.73;;;7.93;;
13785;SDS011;47474;48.824;9.384;2023-08-21T06:38:03;9.40;;;8.23;;
13785;SDS011;47474;48.824;9.384;2023-08-21T06:40:30;9.48;;;8.52;;
13785;SDS011;47474;48.824;9.384;2023-08-21T06:42:56;9.60;;;8.60;;
13785;SDS011;47474;48.824;9.384;2023-08-21T06:45:45;9.18;;;8.32;;
13785;SDS011;47474;48.824;9.384;2023-08-21T06:48:12;9.32;;;8.20;;
13785;SDS011;47474;48.824;9.384;2023-08-21T06:50:44;8.73;;;8.02;;
13785;SDS011;47474;48.824;9.384;2023-08-21T06:53:38;9.60;;;8.40;;
13785;SDS011;47474;48.824;9.384;2023-08-21T06:59:09;9.48;;;8.65;;
13785;SDS011;47474;48.824;9.384;2023-08-21T07:02:12;9.70;;;8.52;;
13785;SDS011;47474;48.824;9.384;2023-08-21T07:05:08;12.27;;;9.32;;
13785;SDS011;47474;48.824;9.384;2023-08-21T07:15:48;11.32;;;8.55;;
13785;SDS011;47474;48.824;9.384;2023-08-21T07:18:16;8.63;;;7.85;;
13785;SDS011;47474;48.824;9.384;2023-08-21T07:20:43;9.57;;;8.40;;
13785;SDS011;47474;48.824;9.384;2023-08-21T07:23:10;8.73;;;7.93;;
13785;SDS011;47474;48.824;9.384;2023-08-21T07:25:37;8.18;;;7.32;;
13785;SDS011;47474;48.824;9.384;2023-08-21T07:28:15;9.93;;;8.43;;
13785;SDS011;47474;48.824;9.384;2023-08-21T07:31:33;8.35;;;7.57;;
13785;SDS011;47474;48.824;9.384;2023-08-21T07:35:09;9.40;;;8.40;;
13785;SDS011;47474;48.824;9.384;2023-08-21T07:38:20;8.60;;;7.80;;
13785;SDS011;47474;48.824;9.384;2023-08-21T07:41:05;8.80;;;8.00;;
13785;SDS011;47474;48.824;9.384;2023-08-21T07:43:58;7.80;;;7.10;;
13785;SDS011;47474;48.824;9.384;2023-08-21T07:46:25;8.65;;;7.90;;
13785;SDS011;47474;48.824;9.384;2023-08-21T07:48:52;9.93;;;7.80;;
13785;SDS011;47474;48.824;9.384;2023-08-21T07:51:27;10.27;;;7.63;;
13785;SDS011;47474;48.824;9.384;2023-08-21T07:53:54;8.75;;;7.95;;
13785;SDS011;47474;48.824;9.384;2023-08-21T07:56:34;8.68;;;7.43;;
13785;SDS011;47474;48.824;9.384;2023-08-21T07:59:05;9.38;;;8.43;;
13785;SDS011;47474;48.824;9.384;2023-08-21T08:11:48;9.23;;;7.65;;
13785;SDS011;47474;48.824;9.384;2023-08-21T08:19:48;7.95;;;7.18;;
13785;SDS011;47474;48.824;9.384;2023-08-21T08:22:24;8.70;;;7.80;;
13785;SDS011;47474;48.824;9.384;2023-08-21T08:25:11;7.15;;;6.55;;
13785;SDS011;47474;48.824;9.384;2023-08-21T08:27:52;7.95;;;7.25;;
13785;SDS011;47474;48.824;9.384;2023-08-21T08:30:22;8.25;;;7.55;;
13785;SDS011;47474;48.824;9.384;2023-08-21T08:32:58;9.27;;;8.38;;
13785;SDS011;47474;48.824;9.384;2023-08-21T08:38:44;10.27;;;8.10;;
13785;SDS011;47474;48.824;9.384;2023-08-21T08:41:43;8.30;;;7.50;;
13785;SDS011;47474;48.824;9.384;2023-08-21T08:44:29;7.88;;;7.15;;
13785;SDS011;47474;48.824;9.384;2023-08-21T08:47:34;8.18;;;7.38;;
13785;SDS011;47474;48.824;9.384;2023-08-21T08:51:03;9.07;;;7.80;;
13785;SDS011;47474;48.824;9.384;2023-08-21T08:56:45;10.38;;;7.38;;
13785;SDS011;47474;48.824;9.384;2023-08-21T09:02:42;7.68;;;6.97;;
13785;SDS011;47474;48.824;9.384;2023-08-21T09:05:31;8.35;;;6.60;;
13785;SDS011;47474;48.824;9.384;2023-08-21T09:08:26;7.20;;;6.60;;
13785;SDS011;47474;48.824;9.384;2023-08-21T09:11:20;8.95;;;7.47;;
13785;SDS011;47474;48.824;9.384;2023-08-21T09:13:50;8.65;;;6.78;;
13785;SDS011;47474;48.824;9.384;2023-08-21T09:16:17;7.95;;;7.13;;
13785;SDS011;47474;48.824;9.384;2023-08-21T09:18:46;8.25;;;7.28;;
13785;SDS011;47474;48.824;9.384;2023-08-21T09:21:15;8.13;;;7.15;;
13785;SDS011;47474;48.824;9.384;2023-08-21T09:23:42;9.02;;;6.85;;
13785;SDS011;47474;48.824;9.384;2023-08-21T09:26:09;7.63;;;6.82;;
13785;SDS011;47474;48.824;9.384;2023-08-21T09:28:36;7.90;;;6.75;;
13785;SDS011;47474;48.824;9.384;2023-08-21T09:31:10;7.97;;;6.97;;
13785;SDS011;47474;48.824;9.384;2023-08-21T09:33:59;8.05;;;7.25;;
13785;SDS011;47474;48.824;9.384;2023-08-21T09:39:45;7.38;;;6.47;;
13785;SDS011;47474;48.824;9.384;2023-08-21T09:42:32;7.90;;;7.10;;
13785;SDS011;47474;48.824;9.384;2023-08-21T09:45:06;7.53;;;6.82;;
13785;SDS011;47474;48.824;9.384;2023-08-21T09:47:45;7.72;;;7.00;;
13785;SDS011;47474;48.824;9.384;2023-08-21T09:50:12;7.22;;;6.53;;
13785;SDS011;47474;48.824;9.384;2023-08-21T09:52:39;8.57;;;6.85;;
13785;SDS011;47474;48.824;9.384;2023-08-21T09:55:09;7.00;;;6.30;;
13785;SDS011;47474;48.824;9.384;2023-08-21T09:57:42;7.40;;;6.00;;
13785;SDS011;47474;48.824;9.384;2023-08-21T10:00:09;6.93;;;6.35;;
13785;SDS011;47474;48.824;9.384;2023-08-21T10:02:41;10.35;;;6.53;;
13785;SDS011;47474;48.824;9.384;2023-08-21T10:05:10;10.05;;;6.50;;
13785;SDS011;47474;48.824;9.384;2023-08-21T10:07:37;6.88;;;6.25;;
13785;SDS011;47474;48.824;9.384;2023-08-21T10:10:04;9.15;;;6.65;;
13785;SDS011;47474;48.824;9.384;2023-08-21T10:21:00;6.32;;;5.47;;
13785;SDS011;47474;48.824;9.384;2023-08-21T10:23:54;7.07;;;5.80;;
13785;SDS011;47474;48.824;9.384;2023-08-21T10:26:30;6.32;;;5.28;;
13785;SDS011;47474;48.824;9.384;2023-08-21T10:29:13;7.47;;;5.50;;
13785;SDS011;47474;48.824;9.384;2023-08-21T10:32:03;6.65;;;4.97;;
13785;SDS011;47474;48.824;9.384;2023-08-21T10:34:51;7.07;;;5.50;;
13785;SDS011;47474;48.824;9.384;2023-08-21T10:37:31;7.35;;;5.82;;
13785;SDS011;47474;48.824;9.384;2023-08-21T10:40:23;10.23;;;6.47;;
13785;SDS011;47474;48.824;9.384;2023-08-21T10:42:55;6.43;;;5.82;;
13785;SDS011;47474;48.824;9.384;2023-08-21T10:45:21;6.60;;;5.50;;
13785;SDS011;47474;48.824;9.384;2023-08-21T10:47:48;6.25;;;5.45;;
13785;SDS011;47474;48.824;9.384;2023-08-21T10:50:15;6.53;;;5.95;;
13785;SDS011;47474;48.824;9.384;2023-08-21T10:52:43;6.85;;;5.57;;
13785;SDS011;47474;48.824;9.384;2023-08-21T10:55:11;7.32;;;5.20;;
13785;SDS011;47474;48.824;9.384;2023-08-21T10:57:38;5.47;;;4.90;;
13785;SDS011;47474;48.824;9.384;2023-08-21T11:00:10;6.32;;;5.07;;
13785;SDS011;47474;48.824;9.384;2023-08-21T11:02:49;6.05;;;5.45;;
13785;SDS011;47474;48.824;9.384;2023-08-21T11:05:28;7.00;;;4.70;;
13785;SDS011;47474;48.824;9.384;2023-08-21T11:08:10;6.10;;;5.50;;
13785;SDS011;47474;48.824;9.384;2023-08-21T11:10:57;5.45;;;5.05;;
13785;SDS011;47474;48.824;9.384;2023-08-21T11:13:56;5.78;;;5.15;;
13785;SDS011;47474;48.824;9.384;2023-08-21T11:17:07;6.38;;;5.78;;
13785;SDS011;47474;48.824;9.384;2023-08-21T11:19:57;6.43;;;5.15;;
13785;SDS011;47474;48.824;9.384;2023-08-21T11:22:49;9.65;;;5.93;;
13785;SDS011;47474;48.824;9.384;2023-08-21T11:26:01;6.65;;;5.45;;
13785;SDS011;47474;48.824;9.384;2023-08-21T11:28:54;8.27;;;5.32;;
13785;SDS011;47474;48.824;9.384;2023-08-21T11:31:42;6.03;;;5.25;;
13785;SDS011;47474;48.824;9.384;2023-08-21T11:34:37;9.52;;;6.03;;
13785;SDS011;47474;48.824;9.384;2023-08-21T11:37:28;5.40;;;4.90;;
13785;SDS011;47474;48.824;9.384;2023-08-21T11:40:06;5.85;;;5.13;;
13785;SDS011;47474;48.824;9.384;2023-08-21T11:43:00;7.13;;;5.75;;
13785;SDS011;47474;48.824;9.384;2023-08-21T11:45:28;7.80;;;5.45;;
13785;SDS011;47474;48.824;9.384;2023-08-21T11:47:55;5.97;;;5.32;;
13785;SDS011;47474;48.824;9.384;2023-08-21T11:50:28;6.55;;;5.50;;
13785;SDS011;47474;48.824;9.384;2023-08-21T11:52:55;7.53;;;5.53;;
13785;SDS011;47474;48.824;9.384;2023-08-21T11:55:22;6.63;;;5.88;;
13785;SDS011;47474;48.824;9.384;2023-08-21T11:57:49;6.15;;;5.55;;
13785;SDS011;47474;48.824;9.384;2023-08-21T12:00:26;6.18;;;5.57;;
13785;SDS011;47474;48.824;9.384;2023-08-21T12:03:32;7.20;;;5.43;;
13785;SDS011;47474;48.824;9.384;2023-08-21T12:06:33;8.23;;;6.03;;
13785;SDS011;47474;48.824;9.384;2023-08-21T12:09:08;7.75;;;5.38;;
13785;SDS011;47474;48.824;9.384;2023-08-21T12:12:15;6.28;;;5.47;;
13785;SDS011;47474;48.824;9.384;2023-08-21T12:14:49;6.85;;;5.32;;
13785;SDS011;47474;48.824;9.384;2023-08-21T12:17:36;6.20;;;5.60;;
13785;SDS011;47474;48.824;9.384;2023-08-21T12:20:12;6.43;;;5.70;;
13785;SDS011;47474;48.824;9.384;2023-08-21T12:22:43;5.57;;;5.10;;
13785;SDS011;47474;48.824;9.384;2023-08-21T12:25:24;6.18;;;5.57;;
13785;SDS011;47474;48.824;9.384;2023-08-21T12:27:57;6.43;;;5.70;;
13785;SDS011;47474;48.824;9.384;2023-08-21T12:30:26;9.50;;;5.30;;
13785;SDS011;47474;48.824;9.384;2023-08-21T12:33:02;6.60;;;5.68;;
13785;SDS011;47474;48.824;9.384;2023-08-21T12:35:40;5.97;;;5.30;;
13785;SDS011;47474;48.824;9.384;2023-08-21T12:38:14;6.07;;;5.43;;
13785;SDS011;47474;48.824;9.384;2023-08-21T12:40:44;6.03;;;5.45;;
13785;SDS011;47474;48.824;9.384;2023-08-21T12:43:24;8.27;;;5.55;;
13785;SDS011;47474;48.824;9.384;2023-08-21T12:45:51;6.22;;;5.63;;
13785;SDS011;47474;48.824;9.384;2023-08-21T12:48:19;5.97;;;5.30;;
13785;SDS011;47474;48.824;9.384;2023-08-21T12:50:46;5.80;;;5.18;;
13785;SDS011;47474;48.824;9.384;2023-08-21T12:53:12;6.03;;;5.43;;
13785;SDS011;47474;48.824;9.384;2023-08-21T12:55:39;6.70;;;5.22;;
13785;SDS011;47474;48.824;9.384;2023-08-21T12:58:06;6.05;;;5.05;;
13785;SDS011;47474;48.824;9.384;2023-08-21T13:00:32;6.45;;;5.80;;
13785;SDS011;47474;48.824;9.384;2023-08-21T13:03:09;7.05;;;5.32;;
13785;SDS011;47474;48.824;9.384;2023-08-21T13:05:44;6.65;;;5.78;;
13785;SDS011;47474;48.824;9.384;2023-08-21T13:08:15;6.25;;;5.65;;
13785;SDS011;47474;48.824;9.384;2023-08-21T13:10:42;6.45;;;5.82;;
13785;SDS011;47474;48.824;9.384;2023-08-21T13:13:09;5.38;;;4.88;;
13785;SDS011;47474;48.824;9.384;2023-08-21T13:15:35;6.47;;;5.50;;
13785;SDS011;47474;48.824;9.384;2023-08-21T13:18:02;5.93;;;5.32;;
13785;SDS011;47474;48.824;9.384;2023-08-21T13:20:29;7.72;;;5.00;;
13785;SDS011;47474;48.824;9.384;2023-08-21T13:22:57;7.40;;;5.28;;
13785;SDS011;47474;48.824;9.384;2023-08-21T13:25:24;6.15;;;5.55;;
13785;SDS011;47474;48.824;9.384;2023-08-21T13:27:51;7.80;;;5.60;;
13785;SDS011;47474;48.824;9.384;2023-08-21T13:30:18;5.90;;;5.18;;
13785;SDS011;47474;48.824;9.384;2023-08-21T13:32:45;8.52;;;5.43;;
13785;SDS011;47474;48.824;9.384;2023-08-21T13:35:12;7.68;;;5.80;;
13785;SDS011;47474;48.824;9.384;2023-08-21T13:37:39;6.78;;;4.82;;
13785;SDS011;47474;48.824;9.384;2023-08-21T13:40:10;8.73;;;5.90;;
13785;SDS011;47474;48.824;9.384;2023-08-21T13:42:40;5.72;;;5.20;;
13785;SDS011;47474;48.824;9.384;2023-08-21T13:45:09;6.90;;;5.05;;
13785;SDS011;47474;48.824;9.384;2023-08-21T13:47:39;6.88;;;4.82;;
13785;SDS011;47474;48.824;9.384;2023-08-21T13:50:06;5.75;;;5.10;;
13785;SDS011;47474;48.824;9.384;2023-08-21T13:52:34;6.07;;;4.80;;
13785;SDS011;47474;48.824;9.384;2023-08-21T13:55:01;5.53;;;5.00;;
13785;SDS011;47474;48.824;9.384;2023-08-21T13:57:30;8.80;;;5.28;;
13785;SDS011;47474;48.824;9.384;2023-08-21T14:00:00;6.32;;;5.20;;
13785;SDS011;47474;48.824;9.384;2023-08-21T14:02:27;5.63;;;5.03;;
13785;SDS011;47474;48.824;9.384;2023-08-21T14:04:54;7.68;;;4.95;;
13785;SDS011;47474;48.824;9.384;2023-08-21T14:07:21;7.82;;;5.18;;
13785;SDS011;47474;48.824;9.384;2023-08-21T14:09:48;7.50;;;5.43;;
13785;SDS011;47474;48.824;9.384;2023-08-21T14:12:14;6.35;;;4.40;;
13785;SDS011;47474;48.824;9.384;2023-08-21T14:14:42;6.85;;;5.05;;
13785;SDS011;47474;48.824;9.384;2023-08-21T14:17:09;5.18;;;4.68;;
13785;SDS011;47474;48.824;9.384;2023-08-21T14:19:36;5.93;;;4.65;;
